sensor_id;sensor_type;location;lat;lon;timestamp;P1;durP1;ratioP1;P2;durP2;ratioP2
7166;SDS011;3625;51.762;14.320;2022-07-12T00:01:21;2.33;;;2.03;;
7166;SDS011;3625;51.762;14.320;2022-07-12T00:03:49;2.40;;;2.20;;
7166;SDS011;3625;51.762;14.320;2022-07-12T00:06:18;2.83;;;2.00;;
7166;SDS011;3625;51.762;14.320;2022-07-12T00:08:48;2.10;;;1.90;;
7166;SDS011;3625;51.762;14.320;2022-07-12T00:11:17;3.90;;;2.17;;
7166;SDS011;3625;51.762;14.320;2022-07-12T00:13:46;5.13;;;2.10;;
7166;SDS011;3625;51.762;14.320;2022-07-12T00:16:15;3.90;;;2.27;;
7166;SDS011;3625;51.762;14.320;2022-07-12T00:18:44;2.47;;;2.00;;
7166;SDS011;3625;51.762;14.320;2022-07-12T00:21:13;3.67;;;2.07;;
7166;SDS011;3625;51.762;14.320;2022-07-12T00:23:42;2.53;;;2.20;;
7166;SDS011;3625;51.762;14.320;2022-07-12T00:26:12;6.57;;;2.07;;
7166;SDS011;3625;51.762;14.320;2022-07-12T00:28:41;3.63;;;1.97;;
7166;SDS011;3625;51.762;14.320;2022-07-12T00:31:10;3.07;;;1.80;;
7166;SDS011;3625;51.762;14.320;2022-07-12T00:33:39;4.13;;;2.10;;
7166;SDS011;3625;51.762;14.320;2022-07-12T00:36:08;3.60;;;2.20;;
7166;SDS011;3625;51.762;14.320;2022-07-12T00:38:37;2.17;;;1.90;;
7166;SDS011;3625;51.762;14.320;2022-07-12T00:41:06;2.47;;;1.97;;
7166;SDS011;3625;51.762;14.320;2022-07-12T00:43:36;2.60;;;1.90;;
7166;SDS011;3625;51.762;14.320;2022-07-12T00:46:05;1.80;;;1.70;;
7166;SDS011;3625;51.762;14.320;2022-07-12T00:48:34;2.00;;;1.83;;
7166;SDS011;3625;51.762;14.320;2022-07-12T00:51:04;2.63;;;2.20;;
7166;SDS011;3625;51.762;14.320;2022-07-12T00:53:33;4.27;;;2.00;;
7166;SDS011;3625;51.762;14.320;2022-07-12T00:56:03;2.87;;;1.93;;
7166;SDS011;3625;51.762;14.320;2022-07-12T00:58:32;3.17;;;2.10;;
7166;SDS011;3625;51.762;14.320;2022-07-12T01:01:03;2.10;;;1.90;;
7166;SDS011;3625;51.762;14.320;2022-07-12T01:03:32;2.20;;;2.00;;
7166;SDS011;3625;51.762;14.320;2022-07-12T01:06:01;3.43;;;1.80;;
7166;SDS011;3625;51.762;14.320;2022-07-12T01:08:30;4.20;;;2.00;;
7166;SDS011;3625;51.762;14.320;2022-07-12T01:11:00;3.87;;;2.00;;
7166;SDS011;3625;51.762;14.320;2022-07-12T01:13:30;2.23;;;1.93;;
7166;SDS011;3625;51.762;14.320;2022-07-12T01:16:00;2.63;;;2.20;;
7166;SDS011;3625;51.762;14.320;2022-07-12T01:18:32;2.40;;;2.03;;
7166;SDS011;3625;51.762;14.320;2022-07-12T01:21:02;3.00;;;2.10;;
7166;SDS011;3625;51.762;14.320;2022-07-12T01:23:36;3.30;;;1.90;;
7166;SDS011;3625;51.762;14.320;2022-07-12T01:26:06;3.40;;;2.10;;
7166;SDS011;3625;51.762;14.320;2022-07-12T01:28:35;2.80;;;2.20;;
7166;SDS011;3625;51.762;14.320;2022-07-12T01:31:04;2.77;;;2.23;;
7166;SDS011;3625;51.762;14.320;2022-07-12T01:33:33;2.40;;;2.20;;
7166;SDS011;3625;51.762;14.320;2022-07-12T01:36:03;3.33;;;2.40;;
7166;SDS011;3625;51.762;14.320;2022-07-12T01:38:32;2.67;;;2.30;;
7166;SDS011;3625;51.762;14.320;2022-07-12T01:41:02;2.40;;;2.20;;
7166;SDS011;3625;51.762;14.320;2022-07-12T01:43:32;2.40;;;2.03;;
7166;SDS011;3625;51.762;14.320;2022-07-12T01:46:01;3.07;;;2.20;;
7166;SDS011;3625;51.762;14.320;2022-07-12T01:48:30;2.80;;;2.07;;
7166;SDS011;3625;51.762;14.320;2022-07-12T01:50:59;3.37;;;2.30;;
7166;SDS011;3625;51.762;14.320;2022-07-12T01:53:28;2.30;;;2.00;;
7166;SDS011;3625;51.762;14.320;2022-07-12T01:55:57;2.50;;;2.30;;
7166;SDS011;3625;51.762;14.320;2022-07-12T01:58:27;3.13;;;2.33;;
7166;SDS011;3625;51.762;14.320;2022-07-12T02:00:56;3.80;;;2.37;;
7166;SDS011;3625;51.762;14.320;2022-07-12T02:03:25;2.60;;;2.40;;
7166;SDS011;3625;51.762;14.320;2022-07-12T02:05:54;3.27;;;2.40;;
7166;SDS011;3625;51.762;14.320;2022-07-12T02:08:23;2.63;;;2.20;;
7166;SDS011;3625;51.762;14.320;2022-07-12T02:10:52;2.83;;;2.20;;
7166;SDS011;3625;51.762;14.320;2022-07-12T02:13:20;2.93;;;2.40;;
7166;SDS011;3625;51.762;14.320;2022-07-12T02:15:50;5.50;;;2.40;;
7166;SDS011;3625;51.762;14.320;2022-07-12T02:18:19;5.17;;;2.40;;
7166;SDS011;3625;51.762;14.320;2022-07-12T02:20:48;2.63;;;2.27;;
7166;SDS011;3625;51.762;14.320;2022-07-12T02:23:16;4.03;;;2.40;;
7166;SDS011;3625;51.762;14.320;2022-07-12T02:25:45;3.37;;;2.27;;
7166;SDS011;3625;51.762;14.320;2022-07-12T02:28:14;4.10;;;2.70;;
7166;SDS011;3625;51.762;14.320;2022-07-12T02:30:42;3.83;;;2.53;;
7166;SDS011;3625;51.762;14.320;2022-07-12T02:33:13;2.53;;;2.27;;
7166;SDS011;3625;51.762;14.320;2022-07-12T02:35:42;2.50;;;2.30;;
7166;SDS011;3625;51.762;14.320;2022-07-12T02:38:11;4.90;;;2.10;;
7166;SDS011;3625;51.762;14.320;2022-07-12T02:40:40;4.80;;;2.10;;
7166;SDS011;3625;51.762;14.320;2022-07-12T02:43:21;3.40;;;2.40;;
7166;SDS011;3625;51.762;14.320;2022-07-12T02:45:50;3.20;;;2.20;;
7166;SDS011;3625;51.762;14.320;2022-07-12T02:48:21;3.70;;;2.30;;
7166;SDS011;3625;51.762;14.320;2022-07-12T02:50:50;2.50;;;2.23;;
7166;SDS011;3625;51.762;14.320;2022-07-12T02:53:19;4.27;;;2.20;;
7166;SDS011;3625;51.762;14.320;2022-07-12T02:55:48;2.97;;;2.30;;
7166;SDS011;3625;51.762;14.320;2022-07-12T02:58:17;4.20;;;2.13;;
7166;SDS011;3625;51.762;14.320;2022-07-12T03:00:46;3.97;;;1.80;;
7166;SDS011;3625;51.762;14.320;2022-07-12T03:03:15;3.13;;;2.53;;
7166;SDS011;3625;51.762;14.320;2022-07-12T03:05:45;2.97;;;2.67;;
7166;SDS011;3625;51.762;14.320;2022-07-12T03:08:14;2.77;;;2.20;;
7166;SDS011;3625;51.762;14.320;2022-07-12T03:10:42;2.77;;;2.20;;
7166;SDS011;3625;51.762;14.320;2022-07-12T03:13:11;2.80;;;2.43;;
7166;SDS011;3625;51.762;14.320;2022-07-12T03:15:40;3.83;;;2.10;;
7166;SDS011;3625;51.762;14.320;2022-07-12T03:18:09;2.60;;;2.20;;
7166;SDS011;3625;51.762;14.320;2022-07-12T03:20:37;3.67;;;2.45;;
7166;SDS011;3625;51.762;14.320;2022-07-12T03:23:08;2.90;;;2.33;;
7166;SDS011;3625;51.762;14.320;2022-07-12T03:25:37;3.20;;;2.30;;
7166;SDS011;3625;51.762;14.320;2022-07-12T03:28:05;2.67;;;2.17;;
7166;SDS011;3625;51.762;14.320;2022-07-12T03:30:34;2.67;;;2.47;;
7166;SDS011;3625;51.762;14.320;2022-07-12T03:33:03;2.40;;;2.20;;
7166;SDS011;3625;51.762;14.320;2022-07-12T03:35:31;2.37;;;2.17;;
7166;SDS011;3625;51.762;14.320;2022-07-12T03:38:00;3.70;;;2.50;;
7166;SDS011;3625;51.762;14.320;2022-07-12T03:40:32;4.17;;;2.53;;
7166;SDS011;3625;51.762;14.320;2022-07-12T03:43:01;2.70;;;2.30;;
7166;SDS011;3625;51.762;14.320;2022-07-12T03:45:30;2.63;;;2.40;;
7166;SDS011;3625;51.762;14.320;2022-07-12T03:47:59;3.00;;;2.70;;
7166;SDS011;3625;51.762;14.320;2022-07-12T03:50:27;2.67;;;2.10;;
7166;SDS011;3625;51.762;14.320;2022-07-12T03:52:56;2.37;;;2.20;;
7166;SDS011;3625;51.762;14.320;2022-07-12T03:55:25;4.20;;;2.40;;
7166;SDS011;3625;51.762;14.320;2022-07-12T03:57:55;2.97;;;2.50;;
7166;SDS011;3625;51.762;14.320;2022-07-12T04:00:24;4.40;;;2.47;;
7166;SDS011;3625;51.762;14.320;2022-07-12T04:02:52;3.23;;;2.50;;
7166;SDS011;3625;51.762;14.320;2022-07-12T04:05:22;3.20;;;2.50;;
7166;SDS011;3625;51.762;14.320;2022-07-12T04:07:53;3.20;;;2.30;;
7166;SDS011;3625;51.762;14.320;2022-07-12T04:10:22;3.50;;;2.10;;
7166;SDS011;3625;51.762;14.320;2022-07-12T04:12:51;3.37;;;2.60;;
7166;SDS011;3625;51.762;14.320;2022-07-12T04:15:21;2.80;;;2.30;;
7166;SDS011;3625;51.762;14.320;2022-07-12T04:17:50;2.80;;;2.57;;
7166;SDS011;3625;51.762;14.320;2022-07-12T04:20:19;2.67;;;2.47;;
7166;SDS011;3625;51.762;14.320;2022-07-12T04:22:48;2.83;;;2.60;;
7166;SDS011;3625;51.762;14.320;2022-07-12T04:25:17;5.30;;;2.60;;
7166;SDS011;3625;51.762;14.320;2022-07-12T04:27:46;5.63;;;2.80;;
7166;SDS011;3625;51.762;14.320;2022-07-12T04:30:15;3.17;;;2.40;;
7166;SDS011;3625;51.762;14.320;2022-07-12T04:32:45;3.17;;;2.60;;
7166;SDS011;3625;51.762;14.320;2022-07-12T04:35:15;2.57;;;2.27;;
7166;SDS011;3625;51.762;14.320;2022-07-12T04:37:44;4.37;;;2.40;;
7166;SDS011;3625;51.762;14.320;2022-07-12T04:40:12;2.60;;;2.40;;
7166;SDS011;3625;51.762;14.320;2022-07-12T04:42:41;3.67;;;2.73;;
7166;SDS011;3625;51.762;14.320;2022-07-12T04:45:10;2.33;;;2.10;;
7166;SDS011;3625;51.762;14.320;2022-07-12T04:47:39;3.27;;;2.40;;
7166;SDS011;3625;51.762;14.320;2022-07-12T04:50:09;2.57;;;2.37;;
7166;SDS011;3625;51.762;14.320;2022-07-12T04:52:38;3.20;;;2.33;;
7166;SDS011;3625;51.762;14.320;2022-07-12T04:55:08;2.43;;;2.20;;
7166;SDS011;3625;51.762;14.320;2022-07-12T04:57:37;3.63;;;2.43;;
7166;SDS011;3625;51.762;14.320;2022-07-12T05:00:08;3.00;;;2.27;;
7166;SDS011;3625;51.762;14.320;2022-07-12T05:02:38;3.57;;;1.97;;
7166;SDS011;3625;51.762;14.320;2022-07-12T05:05:07;3.00;;;2.10;;
7166;SDS011;3625;51.762;14.320;2022-07-12T05:07:37;2.83;;;2.03;;
7166;SDS011;3625;51.762;14.320;2022-07-12T05:10:12;2.58;;;2.20;;
7166;SDS011;3625;51.762;14.320;2022-07-12T05:12:41;2.80;;;2.30;;
7166;SDS011;3625;51.762;14.320;2022-07-12T05:15:10;3.03;;;2.00;;
7166;SDS011;3625;51.762;14.320;2022-07-12T05:17:38;3.05;;;2.10;;
7166;SDS011;3625;51.762;14.320;2022-07-12T05:20:09;2.63;;;2.00;;
7166;SDS011;3625;51.762;14.320;2022-07-12T05:22:39;2.45;;;2.10;;
7166;SDS011;3625;51.762;14.320;2022-07-12T05:25:08;2.97;;;2.38;;
7166;SDS011;3625;51.762;14.320;2022-07-12T05:27:39;2.33;;;2.15;;
7166;SDS011;3625;51.762;14.320;2022-07-12T05:30:07;3.53;;;2.08;;
7166;SDS011;3625;51.762;14.320;2022-07-12T05:32:37;3.55;;;2.03;;
7166;SDS011;3625;51.762;14.320;2022-07-12T05:35:06;4.38;;;1.80;;
7166;SDS011;3625;51.762;14.320;2022-07-12T05:37:37;2.10;;;1.90;;
7166;SDS011;3625;51.762;14.320;2022-07-12T05:40:06;3.08;;;1.70;;
7166;SDS011;3625;51.762;14.320;2022-07-12T05:42:36;2.03;;;1.80;;
7166;SDS011;3625;51.762;14.320;2022-07-12T05:45:05;3.15;;;1.80;;
7166;SDS011;3625;51.762;14.320;2022-07-12T05:47:34;3.35;;;1.60;;
7166;SDS011;3625;51.762;14.320;2022-07-12T05:50:05;2.22;;;1.50;;
7166;SDS011;3625;51.762;14.320;2022-07-12T05:52:36;1.70;;;1.60;;
7166;SDS011;3625;51.762;14.320;2022-07-12T05:55:22;2.25;;;1.75;;
7166;SDS011;3625;51.762;14.320;2022-07-12T05:57:51;3.17;;;1.50;;
7166;SDS011;3625;51.762;14.320;2022-07-12T06:00:19;2.92;;;1.65;;
7166;SDS011;3625;51.762;14.320;2022-07-12T06:02:50;2.88;;;1.50;;
7166;SDS011;3625;51.762;14.320;2022-07-12T06:05:22;1.83;;;1.50;;
7166;SDS011;3625;51.762;14.320;2022-07-12T06:07:52;1.50;;;1.40;;
7166;SDS011;3625;51.762;14.320;2022-07-12T06:10:21;4.32;;;1.55;;
7166;SDS011;3625;51.762;14.320;2022-07-12T06:12:50;3.45;;;1.65;;
7166;SDS011;3625;51.762;14.320;2022-07-12T06:15:19;1.83;;;1.73;;
7166;SDS011;3625;51.762;14.320;2022-07-12T06:17:48;2.03;;;1.70;;
7166;SDS011;3625;51.762;14.320;2022-07-12T06:20:17;2.40;;;1.48;;
7166;SDS011;3625;51.762;14.320;2022-07-12T06:22:46;2.25;;;1.73;;
7166;SDS011;3625;51.762;14.320;2022-07-12T06:25:17;2.88;;;1.50;;
7166;SDS011;3625;51.762;14.320;2022-07-12T06:28:06;1.42;;;1.30;;
7166;SDS011;3625;51.762;14.320;2022-07-12T06:30:35;1.67;;;1.58;;
7166;SDS011;3625;51.762;14.320;2022-07-12T06:33:04;2.40;;;1.73;;
7166;SDS011;3625;51.762;14.320;2022-07-12T06:35:33;2.13;;;1.42;;
7166;SDS011;3625;51.762;14.320;2022-07-12T06:38:05;1.58;;;1.48;;
7166;SDS011;3625;51.762;14.320;2022-07-12T06:40:35;1.67;;;1.25;;
7166;SDS011;3625;51.762;14.320;2022-07-12T06:43:09;1.65;;;1.55;;
7166;SDS011;3625;51.762;14.320;2022-07-12T06:45:41;2.72;;;1.45;;
7166;SDS011;3625;51.762;14.320;2022-07-12T06:48:09;1.63;;;1.30;;
7166;SDS011;3625;51.762;14.320;2022-07-12T06:50:38;2.05;;;1.38;;
7166;SDS011;3625;51.762;14.320;2022-07-12T06:53:07;1.42;;;1.27;;
7166;SDS011;3625;51.762;14.320;2022-07-12T06:55:41;1.70;;;1.30;;
7166;SDS011;3625;51.762;14.320;2022-07-12T06:58:11;1.33;;;1.23;;
7166;SDS011;3625;51.762;14.320;2022-07-12T07:00:41;4.97;;;1.35;;
7166;SDS011;3625;51.762;14.320;2022-07-12T07:03:10;2.38;;;1.20;;
7166;SDS011;3625;51.762;14.320;2022-07-12T07:05:39;2.47;;;1.50;;
7166;SDS011;3625;51.762;14.320;2022-07-12T07:08:08;1.80;;;1.25;;
7166;SDS011;3625;51.762;14.320;2022-07-12T07:10:37;1.70;;;1.30;;
7166;SDS011;3625;51.762;14.320;2022-07-12T07:13:07;2.05;;;1.23;;
7166;SDS011;3625;51.762;14.320;2022-07-12T07:15:38;1.50;;;1.27;;
7166;SDS011;3625;51.762;14.320;2022-07-12T07:18:08;2.35;;;1.10;;
7166;SDS011;3625;51.762;14.320;2022-07-12T07:20:37;1.23;;;1.10;;
7166;SDS011;3625;51.762;14.320;2022-07-12T07:23:07;3.13;;;1.20;;
7166;SDS011;3625;51.762;14.320;2022-07-12T07:25:37;2.13;;;1.10;;
7166;SDS011;3625;51.762;14.320;2022-07-12T07:28:08;2.42;;;1.00;;
7166;SDS011;3625;51.762;14.320;2022-07-12T07:30:36;1.20;;;1.10;;
7166;SDS011;3625;51.762;14.320;2022-07-12T07:33:24;0.82;;;0.82;;
7166;SDS011;3625;51.762;14.320;2022-07-12T07:35:54;1.85;;;1.02;;
7166;SDS011;3625;51.762;14.320;2022-07-12T07:38:23;1.80;;;1.10;;
7166;SDS011;3625;51.762;14.320;2022-07-12T07:40:53;1.30;;;1.10;;
7166;SDS011;3625;51.762;14.320;2022-07-12T07:43:22;4.10;;;1.10;;
7166;SDS011;3625;51.762;14.320;2022-07-12T07:45:50;0.80;;;0.80;;
7166;SDS011;3625;51.762;14.320;2022-07-12T07:48:20;1.25;;;0.80;;
7166;SDS011;3625;51.762;14.320;2022-07-12T07:50:51;2.33;;;1.08;;
7166;SDS011;3625;51.762;14.320;2022-07-12T07:53:20;0.90;;;0.90;;
7166;SDS011;3625;51.762;14.320;2022-07-12T07:55:52;2.38;;;1.10;;
7166;SDS011;3625;51.762;14.320;2022-07-12T07:58:21;1.30;;;1.20;;
7166;SDS011;3625;51.762;14.320;2022-07-12T08:00:51;1.20;;;1.10;;
7166;SDS011;3625;51.762;14.320;2022-07-12T08:03:20;2.22;;;1.20;;
7166;SDS011;3625;51.762;14.320;2022-07-12T08:05:54;1.80;;;1.00;;
7166;SDS011;3625;51.762;14.320;2022-07-12T08:08:24;1.67;;;1.00;;
7166;SDS011;3625;51.762;14.320;2022-07-12T08:11:14;1.05;;;0.80;;
7166;SDS011;3625;51.762;14.320;2022-07-12T08:13:42;1.08;;;0.90;;
7166;SDS011;3625;51.762;14.320;2022-07-12T08:16:18;3.95;;;1.17;;
7166;SDS011;3625;51.762;14.320;2022-07-12T08:18:48;1.17;;;1.00;;
7166;SDS011;3625;51.762;14.320;2022-07-12T08:21:17;1.17;;;0.90;;
7166;SDS011;3625;51.762;14.320;2022-07-12T08:23:46;1.38;;;0.80;;
7166;SDS011;3625;51.762;14.320;2022-07-12T08:26:16;1.52;;;0.80;;
7166;SDS011;3625;51.762;14.320;2022-07-12T08:28:45;2.72;;;1.05;;
7166;SDS011;3625;51.762;14.320;2022-07-12T08:31:13;0.80;;;0.80;;
7166;SDS011;3625;51.762;14.320;2022-07-12T08:33:45;1.63;;;0.90;;
7166;SDS011;3625;51.762;14.320;2022-07-12T08:36:14;1.17;;;1.05;;
7166;SDS011;3625;51.762;14.320;2022-07-12T08:38:43;0.90;;;0.90;;
7166;SDS011;3625;51.762;14.320;2022-07-12T08:41:17;4.13;;;0.95;;
7166;SDS011;3625;51.762;14.320;2022-07-12T08:43:49;1.25;;;0.93;;
7166;SDS011;3625;51.762;14.320;2022-07-12T08:46:19;1.00;;;0.80;;
7166;SDS011;3625;51.762;14.320;2022-07-12T08:48:49;0.75;;;0.70;;
7166;SDS011;3625;51.762;14.320;2022-07-12T08:51:19;2.97;;;0.88;;
7166;SDS011;3625;51.762;14.320;2022-07-12T08:53:58;1.00;;;0.90;;
7166;SDS011;3625;51.762;14.320;2022-07-12T08:56:36;1.30;;;0.80;;
7166;SDS011;3625;51.762;14.320;2022-07-12T08:59:10;0.95;;;0.85;;
7166;SDS011;3625;51.762;14.320;2022-07-12T09:01:41;1.95;;;0.80;;
7166;SDS011;3625;51.762;14.320;2022-07-12T09:04:12;0.80;;;0.80;;
7166;SDS011;3625;51.762;14.320;2022-07-12T09:06:42;4.55;;;1.20;;
7166;SDS011;3625;51.762;14.320;2022-07-12T09:09:11;0.90;;;0.80;;
7166;SDS011;3625;51.762;14.320;2022-07-12T09:11:55;0.85;;;0.70;;
7166;SDS011;3625;51.762;14.320;2022-07-12T09:14:26;1.13;;;0.80;;
7166;SDS011;3625;51.762;14.320;2022-07-12T09:16:58;1.00;;;0.80;;
7166;SDS011;3625;51.762;14.320;2022-07-12T09:19:29;1.35;;;1.00;;
7166;SDS011;3625;51.762;14.320;2022-07-12T09:21:59;0.93;;;0.73;;
7166;SDS011;3625;51.762;14.320;2022-07-12T09:24:30;0.80;;;0.80;;
7166;SDS011;3625;51.762;14.320;2022-07-12T09:27:01;1.48;;;0.90;;
7166;SDS011;3625;51.762;14.320;2022-07-12T09:29:32;1.00;;;0.80;;
7166;SDS011;3625;51.762;14.320;2022-07-12T09:32:13;0.63;;;0.63;;
7166;SDS011;3625;51.762;14.320;2022-07-12T09:35:00;0.80;;;0.80;;
7166;SDS011;3625;51.762;14.320;2022-07-12T09:37:49;0.60;;;0.60;;
7166;SDS011;3625;51.762;14.320;2022-07-12T09:40:18;1.33;;;0.75;;
7166;SDS011;3625;51.762;14.320;2022-07-12T09:42:50;0.98;;;0.80;;
7166;SDS011;3625;51.762;14.320;2022-07-12T09:45:19;0.82;;;0.73;;
7166;SDS011;3625;51.762;14.320;2022-07-12T09:47:49;1.88;;;0.73;;
7166;SDS011;3625;51.762;14.320;2022-07-12T09:50:22;0.90;;;0.90;;
7166;SDS011;3625;51.762;14.320;2022-07-12T09:52:50;0.70;;;0.70;;
7166;SDS011;3625;51.762;14.320;2022-07-12T09:55:23;1.95;;;0.90;;
7166;SDS011;3625;51.762;14.320;2022-07-12T09:57:59;1.33;;;0.70;;
7166;SDS011;3625;51.762;14.320;2022-07-12T10:00:30;1.02;;;0.82;;
7166;SDS011;3625;51.762;14.320;2022-07-12T10:02:59;2.05;;;0.93;;
7166;SDS011;3625;51.762;14.320;2022-07-12T10:05:34;2.78;;;0.80;;
7166;SDS011;3625;51.762;14.320;2022-07-12T10:08:09;2.65;;;1.08;;
7166;SDS011;3625;51.762;14.320;2022-07-12T10:10:38;0.93;;;0.75;;
7166;SDS011;3625;51.762;14.320;2022-07-12T10:13:08;1.15;;;0.80;;
7166;SDS011;3625;51.762;14.320;2022-07-12T10:15:38;0.80;;;0.80;;
7166;SDS011;3625;51.762;14.320;2022-07-12T10:18:14;1.30;;;0.90;;
7166;SDS011;3625;51.762;14.320;2022-07-12T10:20:45;1.30;;;0.70;;
7166;SDS011;3625;51.762;14.320;2022-07-12T10:23:32;1.67;;;0.85;;
7166;SDS011;3625;51.762;14.320;2022-07-12T10:29:09;1.10;;;0.85;;
7166;SDS011;3625;51.762;14.320;2022-07-12T10:31:38;1.80;;;0.90;;
7166;SDS011;3625;51.762;14.320;2022-07-12T10:34:12;0.60;;;0.60;;
7166;SDS011;3625;51.762;14.320;2022-07-12T10:37:07;0.93;;;0.77;;
7166;SDS011;3625;51.762;14.320;2022-07-12T10:42:41;1.70;;;0.70;;
7166;SDS011;3625;51.762;14.320;2022-07-12T10:45:49;1.17;;;0.70;;
7166;SDS011;3625;51.762;14.320;2022-07-12T10:48:24;1.13;;;0.63;;
7166;SDS011;3625;51.762;14.320;2022-07-12T10:50:55;1.00;;;0.70;;
7166;SDS011;3625;51.762;14.320;2022-07-12T10:53:25;1.05;;;0.77;;
7166;SDS011;3625;51.762;14.320;2022-07-12T10:56:07;1.58;;;0.95;;
7166;SDS011;3625;51.762;14.320;2022-07-12T10:58:55;1.92;;;0.98;;
7166;SDS011;3625;51.762;14.320;2022-07-12T11:01:28;0.75;;;0.70;;
7166;SDS011;3625;51.762;14.320;2022-07-12T11:04:07;0.95;;;0.60;;
7166;SDS011;3625;51.762;14.320;2022-07-12T11:06:38;0.70;;;0.60;;
7166;SDS011;3625;51.762;14.320;2022-07-12T11:09:10;0.80;;;0.63;;
7166;SDS011;3625;51.762;14.320;2022-07-12T11:11:41;1.00;;;0.60;;
7166;SDS011;3625;51.762;14.320;2022-07-12T11:14:20;1.85;;;0.70;;
7166;SDS011;3625;51.762;14.320;2022-07-12T11:16:55;0.63;;;0.60;;
7166;SDS011;3625;51.762;14.320;2022-07-12T11:19:26;4.70;;;1.38;;
7166;SDS011;3625;51.762;14.320;2022-07-12T11:21:57;1.75;;;0.60;;
7166;SDS011;3625;51.762;14.320;2022-07-12T11:24:27;1.10;;;0.60;;
7166;SDS011;3625;51.762;14.320;2022-07-12T11:26:57;1.23;;;0.75;;
7166;SDS011;3625;51.762;14.320;2022-07-12T11:29:26;0.73;;;0.70;;
7166;SDS011;3625;51.762;14.320;2022-07-12T11:32:00;1.23;;;0.60;;
7166;SDS011;3625;51.762;14.320;2022-07-12T11:34:37;0.95;;;0.60;;
7166;SDS011;3625;51.762;14.320;2022-07-12T11:37:06;1.52;;;0.70;;
7166;SDS011;3625;51.762;14.320;2022-07-12T11:39:35;1.30;;;0.60;;
7166;SDS011;3625;51.762;14.320;2022-07-12T11:42:07;0.60;;;0.50;;
7166;SDS011;3625;51.762;14.320;2022-07-12T11:44:41;0.70;;;0.50;;
7166;SDS011;3625;51.762;14.320;2022-07-12T11:47:26;0.90;;;0.70;;
7166;SDS011;3625;51.762;14.320;2022-07-12T11:49:55;2.97;;;0.90;;
7166;SDS011;3625;51.762;14.320;2022-07-12T11:52:24;1.02;;;0.50;;
7166;SDS011;3625;51.762;14.320;2022-07-12T11:54:53;0.77;;;0.60;;
7166;SDS011;3625;51.762;14.320;2022-07-12T11:57:22;0.90;;;0.65;;
7166;SDS011;3625;51.762;14.320;2022-07-12T11:59:58;1.02;;;0.77;;
7166;SDS011;3625;51.762;14.320;2022-07-12T12:02:51;2.75;;;0.82;;
7166;SDS011;3625;51.762;14.320;2022-07-12T12:05:21;1.10;;;0.60;;
7166;SDS011;3625;51.762;14.320;2022-07-12T12:07:51;1.65;;;0.80;;
7166;SDS011;3625;51.762;14.320;2022-07-12T12:10:22;2.05;;;0.70;;
7166;SDS011;3625;51.762;14.320;2022-07-12T12:12:51;0.60;;;0.60;;
7166;SDS011;3625;51.762;14.320;2022-07-12T12:15:23;0.82;;;0.70;;
7166;SDS011;3625;51.762;14.320;2022-07-12T12:17:56;1.20;;;0.70;;
7166;SDS011;3625;51.762;14.320;2022-07-12T12:20:27;1.75;;;0.75;;
7166;SDS011;3625;51.762;14.320;2022-07-12T12:23:05;0.75;;;0.70;;
7166;SDS011;3625;51.762;14.320;2022-07-12T12:25:42;1.52;;;0.70;;
7166;SDS011;3625;51.762;14.320;2022-07-12T12:28:18;1.70;;;0.80;;
7166;SDS011;3625;51.762;14.320;2022-07-12T12:30:48;0.88;;;0.60;;
7166;SDS011;3625;51.762;14.320;2022-07-12T12:33:37;1.48;;;0.80;;
7166;SDS011;3625;51.762;14.320;2022-07-12T12:36:10;1.50;;;0.80;;
7166;SDS011;3625;51.762;14.320;2022-07-12T12:38:45;0.73;;;0.70;;
7166;SDS011;3625;51.762;14.320;2022-07-12T12:41:15;1.13;;;0.80;;
7166;SDS011;3625;51.762;14.320;2022-07-12T12:43:46;0.70;;;0.70;;
7166;SDS011;3625;51.762;14.320;2022-07-12T12:46:21;1.38;;;1.08;;
7166;SDS011;3625;51.762;14.320;2022-07-12T12:48:51;0.75;;;0.75;;
7166;SDS011;3625;51.762;14.320;2022-07-12T12:51:20;1.63;;;0.80;;
7166;SDS011;3625;51.762;14.320;2022-07-12T12:53:54;0.60;;;0.60;;
7166;SDS011;3625;51.762;14.320;2022-07-12T12:56:26;1.08;;;0.60;;
7166;SDS011;3625;51.762;14.320;2022-07-12T12:58:57;2.08;;;0.68;;
7166;SDS011;3625;51.762;14.320;2022-07-12T13:01:26;0.60;;;0.60;;
7166;SDS011;3625;51.762;14.320;2022-07-12T13:03:59;3.55;;;0.93;;
7166;SDS011;3625;51.762;14.320;2022-07-12T13:06:32;1.58;;;0.88;;
7166;SDS011;3625;51.762;14.320;2022-07-12T13:09:02;0.52;;;0.52;;
7166;SDS011;3625;51.762;14.320;2022-07-12T13:11:33;0.75;;;0.63;;
7166;SDS011;3625;51.762;14.320;2022-07-12T13:14:02;1.35;;;0.60;;
7166;SDS011;3625;51.762;14.320;2022-07-12T13:16:32;2.55;;;0.80;;
7166;SDS011;3625;51.762;14.320;2022-07-12T13:19:03;1.92;;;0.70;;
7166;SDS011;3625;51.762;14.320;2022-07-12T13:21:31;1.70;;;0.75;;
7166;SDS011;3625;51.762;14.320;2022-07-12T13:24:01;0.68;;;0.60;;
7166;SDS011;3625;51.762;14.320;2022-07-12T13:26:29;0.68;;;0.63;;
7166;SDS011;3625;51.762;14.320;2022-07-12T13:29:03;1.85;;;0.90;;
7166;SDS011;3625;51.762;14.320;2022-07-12T13:31:33;1.23;;;0.73;;
7166;SDS011;3625;51.762;14.320;2022-07-12T13:34:04;0.90;;;0.60;;
7166;SDS011;3625;51.762;14.320;2022-07-12T13:36:33;1.05;;;0.73;;
7166;SDS011;3625;51.762;14.320;2022-07-12T13:39:02;1.75;;;1.00;;
7166;SDS011;3625;51.762;14.320;2022-07-12T13:41:44;1.05;;;0.70;;
7166;SDS011;3625;51.762;14.320;2022-07-12T13:44:13;5.53;;;0.93;;
7166;SDS011;3625;51.762;14.320;2022-07-12T13:46:48;1.00;;;0.70;;
7166;SDS011;3625;51.762;14.320;2022-07-12T13:49:18;0.77;;;0.50;;
7166;SDS011;3625;51.762;14.320;2022-07-12T13:51:49;2.90;;;0.90;;
7166;SDS011;3625;51.762;14.320;2022-07-12T13:54:19;2.42;;;1.08;;
7166;SDS011;3625;51.762;14.320;2022-07-12T13:56:48;0.60;;;0.60;;
7166;SDS011;3625;51.762;14.320;2022-07-12T13:59:16;1.70;;;0.93;;
7166;SDS011;3625;51.762;14.320;2022-07-12T14:01:45;0.60;;;0.60;;
7166;SDS011;3625;51.762;14.320;2022-07-12T14:04:14;1.27;;;0.70;;
7166;SDS011;3625;51.762;14.320;2022-07-12T14:06:44;1.10;;;0.80;;
7166;SDS011;3625;51.762;14.320;2022-07-12T14:09:14;2.67;;;1.10;;
7166;SDS011;3625;51.762;14.320;2022-07-12T14:11:43;2.35;;;0.80;;
7166;SDS011;3625;51.762;14.320;2022-07-12T14:14:12;1.85;;;0.82;;
7166;SDS011;3625;51.762;14.320;2022-07-12T14:16:44;0.95;;;0.90;;
7166;SDS011;3625;51.762;14.320;2022-07-12T14:19:13;1.27;;;1.00;;
7166;SDS011;3625;51.762;14.320;2022-07-12T14:21:42;1.08;;;0.90;;
7166;SDS011;3625;51.762;14.320;2022-07-12T14:24:12;1.10;;;0.80;;
7166;SDS011;3625;51.762;14.320;2022-07-12T14:26:43;1.60;;;0.77;;
7166;SDS011;3625;51.762;14.320;2022-07-12T14:29:18;0.47;;;0.40;;
7166;SDS011;3625;51.762;14.320;2022-07-12T14:31:47;1.55;;;0.80;;
7166;SDS011;3625;51.762;14.320;2022-07-12T14:34:18;1.15;;;0.75;;
7166;SDS011;3625;51.762;14.320;2022-07-12T14:36:51;1.98;;;0.70;;
7166;SDS011;3625;51.762;14.320;2022-07-12T14:39:23;1.13;;;0.90;;
7166;SDS011;3625;51.762;14.320;2022-07-12T14:41:51;1.50;;;0.80;;
7166;SDS011;3625;51.762;14.320;2022-07-12T14:44:21;0.47;;;0.47;;
7166;SDS011;3625;51.762;14.320;2022-07-12T14:46:52;1.33;;;0.73;;
7166;SDS011;3625;51.762;14.320;2022-07-12T14:49:21;0.70;;;0.70;;
7166;SDS011;3625;51.762;14.320;2022-07-12T14:51:50;1.88;;;0.85;;
7166;SDS011;3625;51.762;14.320;2022-07-12T14:54:19;0.57;;;0.57;;
7166;SDS011;3625;51.762;14.320;2022-07-12T14:56:49;3.00;;;0.70;;
7166;SDS011;3625;51.762;14.320;2022-07-12T14:59:19;1.40;;;0.77;;
7166;SDS011;3625;51.762;14.320;2022-07-12T15:01:49;1.95;;;0.65;;
7166;SDS011;3625;51.762;14.320;2022-07-12T15:07:30;1.35;;;0.80;;
7166;SDS011;3625;51.762;14.320;2022-07-12T15:09:59;2.03;;;0.60;;
7166;SDS011;3625;51.762;14.320;2022-07-12T15:12:29;1.00;;;0.70;;
7166;SDS011;3625;51.762;14.320;2022-07-12T15:14:59;1.38;;;0.80;;
7166;SDS011;3625;51.762;14.320;2022-07-12T15:17:29;1.33;;;0.70;;
7166;SDS011;3625;51.762;14.320;2022-07-12T15:19:58;1.95;;;0.90;;
7166;SDS011;3625;51.762;14.320;2022-07-12T15:22:27;4.13;;;0.90;;
7166;SDS011;3625;51.762;14.320;2022-07-12T15:24:55;1.98;;;0.70;;
7166;SDS011;3625;51.762;14.320;2022-07-12T15:27:24;0.90;;;0.70;;
7166;SDS011;3625;51.762;14.320;2022-07-12T15:29:55;0.80;;;0.80;;
7166;SDS011;3625;51.762;14.320;2022-07-12T15:32:24;1.42;;;0.90;;